createdAt,value
2017-01-06T00:00:09.633Z,71.84
2017-01-06T00:01:19.985Z,72.13
2017-01-06T00:02:30.330Z,72.13
2017-01-06T00:03:40.674Z,71.66
2017-01-06T00:04:51.423Z,71.56
2017-01-06T00:06:02.168Z,71.56
2017-01-06T00:07:12.527Z,71.56
2017-01-06T00:08:23.281Z,71.66
2017-01-06T00:09:34.016Z,72.22
2017-01-06T00:10:44.750Z,72.13
2017-01-06T00:11:55.085Z,71.66
2017-01-06T00:13:05.821Z,72.03
2017-01-06T00:14:14.981Z,72.13
2017-01-06T00:15:25.719Z,71.66
2017-01-06T00:16:36.072Z,71.66
2017-01-06T00:17:46.462Z,72.13
2017-01-06T00:18:57.189Z,71.66
2017-01-06T00:20:07.551Z,71.94
2017-01-06T00:21:18.283Z,72.03
2017-01-06T00:22:28.632Z,71.94
2017-01-06T00:23:39.358Z,72.03
2017-01-06T00:24:49.725Z,71.94
2017-01-06T00:26:00.490Z,71.94
2017-01-06T00:27:11.227Z,72.22
2017-01-06T00:28:21.574Z,72.13
2017-01-06T00:29:32.306Z,72.22
2017-01-06T00:30:43.038Z,72.13
2017-01-06T00:31:53.773Z,72.22
2017-01-06T00:33:04.110Z,71.66
2017-01-06T00:34:14.841Z,71.66
2017-01-06T00:35:24.788Z,71.66
2017-01-06T00:36:35.516Z,71.94
2017-01-06T00:37:46.232Z,71.94
2017-01-06T00:38:56.573Z,71.84
2017-01-06T00:40:06.982Z,71.66
2017-01-06T00:41:17.311Z,71.94
2017-01-06T00:42:28.077Z,71.56
2017-01-06T00:43:38.817Z,71.66
2017-01-06T00:44:49.162Z,71.66
2017-01-06T00:45:59.103Z,72.03
2017-01-06T00:47:09.840Z,71.94
2017-01-06T00:48:20.204Z,71.94
2017-01-06T00:49:30.935Z,71.56
2017-01-06T00:50:41.305Z,71.56
2017-01-06T00:51:51.657Z,71.66
2017-01-06T00:53:02.004Z,71.94
2017-01-06T00:54:12.754Z,71.94
2017-01-06T00:55:23.478Z,71.47
2017-01-06T00:56:34.225Z,71.94
2017-01-06T00:57:44.162Z,71.94
2017-01-06T00:58:54.502Z,71.66
2017-01-06T01:00:04.465Z,72.22
2017-01-06T01:01:14.837Z,71.66
2017-01-06T01:02:25.175Z,71.56
2017-01-06T01:03:35.521Z,71.56
2017-01-06T01:04:46.246Z,71.37
2017-01-06T01:05:56.984Z,71.37
2017-01-06T01:07:07.726Z,71.75
2017-01-06T01:08:18.454Z,71.66
2017-01-06T01:09:29.198Z,71.47
2017-01-06T01:10:39.934Z,71.47
2017-01-06T01:11:50.691Z,71.56
2017-01-06T01:13:01.036Z,71.37
2017-01-06T01:14:10.973Z,71.56
2017-01-06T01:15:20.925Z,71.66
2017-01-06T01:16:31.662Z,71.94
2017-01-06T01:17:42.012Z,71.94
2017-01-06T01:18:53.005Z,71.56
2017-01-06T01:20:03.752Z,71.47
2017-01-06T01:21:13.699Z,71.37
2017-01-06T01:22:24.036Z,71.94
2017-01-06T01:23:34.374Z,72.03
2017-01-06T01:24:44.337Z,71.84
2017-01-06T01:25:54.673Z,71.66
2017-01-06T01:27:05.022Z,71.94
2017-01-06T01:28:15.760Z,71.94
2017-01-06T01:29:26.491Z,71.56
2017-01-06T01:30:37.220Z,71.56
2017-01-06T01:31:47.560Z,71.94
2017-01-06T01:32:58.307Z,71.47
2017-01-06T01:34:08.242Z,71.94
2017-01-06T01:35:18.986Z,71.84
2017-01-06T01:36:29.322Z,71.94
2017-01-06T01:37:39.280Z,71.84
2017-01-06T01:38:50.022Z,71.37
2017-01-06T01:40:00.812Z,71.47
2017-01-06T01:41:11.159Z,71.66
2017-01-06T01:42:21.893Z,71.66
2017-01-06T01:43:32.647Z,71.47
2017-01-06T01:44:43.400Z,71.66
2017-01-06T01:45:53.736Z,71.75
2017-01-06T01:47:03.682Z,71.47
2017-01-06T01:48:13.630Z,71.66
2017-01-06T01:49:24.372Z,71.75
2017-01-06T01:50:35.127Z,71.47
2017-01-06T01:51:45.064Z,71.56
2017-01-06T01:52:55.400Z,71.47
2017-01-06T01:54:06.129Z,71.66
2017-01-06T01:55:16.474Z,71.94
2017-01-06T01:56:27.450Z,71.37
2017-01-06T01:57:37.856Z,71.47
2017-01-06T01:58:48.249Z,71.66
2017-01-06T01:59:58.976Z,71.75
2017-01-06T02:01:08.922Z,71.75
2017-01-06T02:02:18.865Z,71.84
2017-01-06T02:03:29.602Z,71.94
2017-01-06T02:04:39.943Z,71.47
2017-01-06T02:05:50.284Z,71.47
2017-01-06T02:07:01.018Z,72.03
2017-01-06T02:08:11.343Z,71.66
2017-01-06T02:09:21.691Z,71.94
2017-01-06T02:10:32.436Z,71.75
2017-01-06T02:11:42.758Z,71.37
2017-01-06T02:12:53.113Z,71.37
2017-01-06T02:14:03.846Z,71.47
2017-01-06T02:15:13.468Z,71.56
2017-01-06T02:16:23.011Z,71.75
2017-01-06T02:17:33.360Z,71.75
2017-01-06T02:18:43.694Z,71.66
2017-01-06T02:19:54.028Z,71.56
2017-01-06T02:21:04.352Z,71.66
2017-01-06T02:22:14.692Z,71.66
2017-01-06T02:23:25.058Z,71.66
2017-01-06T02:24:34.997Z,71.66
2017-01-06T02:25:45.353Z,71.37
2017-01-06T02:26:56.084Z,71.66
2017-01-06T02:28:06.418Z,71.75
2017-01-06T02:29:17.163Z,71.66
2017-01-06T02:30:27.129Z,71.66
2017-01-06T02:31:37.471Z,71.47
2017-01-06T02:32:48.187Z,71.75
2017-01-06T02:33:58.139Z,71.75
2017-01-06T02:35:08.880Z,71.75
2017-01-06T02:36:18.828Z,71.75
2017-01-06T02:37:29.165Z,71.84
2017-01-06T02:38:39.102Z,71.47
2017-01-06T02:39:49.837Z,71.28
2017-01-06T02:41:00.579Z,71.19
2017-01-06T02:42:11.356Z,71.37
2017-01-06T02:43:22.073Z,71.28
2017-01-06T02:44:32.401Z,71.09
2017-01-06T02:45:41.963Z,71.09
2017-01-06T02:46:52.692Z,71.56
2017-01-06T02:48:02.634Z,71.56
2017-01-06T02:49:12.971Z,71.56
2017-01-06T02:50:23.312Z,71.75
2017-01-06T02:51:34.038Z,71.28
2017-01-06T02:52:43.977Z,71.28
2017-01-06T02:53:54.313Z,71.28
2017-01-06T02:55:04.650Z,71.28
2017-01-06T02:56:14.600Z,71.28
2017-01-06T02:57:24.542Z,71.19
2017-01-06T02:58:34.879Z,71.19
2017-01-06T02:59:45.611Z,71.19
2017-01-06T03:00:55.941Z,71.28
2017-01-06T03:32:47.059Z,67.62
2017-01-06T03:33:57.780Z,68.47
2017-01-06T03:35:07.320Z,69.13
2017-01-06T03:36:18.052Z,70.36
2017-01-06T03:37:28.404Z,71.3
2017-01-06T03:38:39.150Z,72.15
2017-01-06T03:39:49.087Z,72.62
2017-01-06T03:40:59.816Z,72.81
2017-01-06T03:42:10.162Z,73.28
2017-01-06T03:43:20.914Z,73.13
2017-01-06T03:44:31.240Z,73.13
2017-01-06T03:45:41.966Z,73.22
2017-01-06T03:46:52.714Z,72.85
2017-01-06T03:48:03.057Z,72.66
2017-01-06T03:49:13.401Z,72.38
2017-01-06T03:50:23.743Z,72.47
2017-01-06T03:51:34.090Z,72.32
2017-01-06T03:52:44.833Z,72.32
2017-01-06T03:53:55.570Z,72.69
2017-01-06T03:55:06.335Z,72.13
2017-01-06T03:56:17.082Z,72.22
2017-01-06T03:57:27.834Z,72.03
2017-01-06T03:58:38.586Z,71.94
2017-01-06T03:59:48.927Z,72.22
2017-01-06T04:00:58.874Z,71.94
2017-01-06T04:02:09.613Z,72.03
2017-01-06T04:03:19.957Z,72.03
2017-01-06T04:04:30.289Z,71.84
2017-01-06T04:05:40.215Z,72.32
2017-01-06T04:06:50.562Z,72.13
2017-01-06T04:08:00.505Z,72.41
2017-01-06T04:09:10.837Z,72.32
2017-01-06T04:10:21.228Z,72.22
2017-01-06T04:11:31.557Z,72.41
2017-01-06T04:12:42.289Z,72.32
2017-01-06T04:13:53.033Z,72.41
2017-01-06T04:15:03.381Z,72.22
2017-01-06T04:16:13.327Z,72.41
2017-01-06T04:17:23.659Z,71.75
2017-01-06T04:18:33.997Z,72.41
2017-01-06T04:19:44.342Z,71.66
2017-01-06T04:20:54.679Z,71.66
2017-01-06T04:22:05.418Z,72.22
2017-01-06T04:23:15.364Z,71.66
2017-01-06T04:24:25.740Z,71.66
2017-01-06T04:25:35.286Z,71.75
2017-01-06T04:26:45.615Z,71.75
2017-01-06T04:27:56.356Z,71.84
2017-01-06T04:29:06.301Z,71.84
2017-01-06T04:30:16.256Z,71.94
2017-01-06T04:31:26.592Z,71.84
2017-01-06T04:32:37.349Z,71.75
2017-01-06T04:33:47.689Z,71.75
2017-01-06T04:34:58.423Z,71.66
2017-01-06T04:36:08.764Z,71.84
2017-01-06T04:37:19.500Z,71.75
2017-01-06T04:38:30.231Z,71.84
2017-01-06T04:39:40.988Z,71.75
2017-01-06T04:40:51.353Z,71.56
2017-01-06T04:42:01.691Z,71.56
2017-01-06T04:43:12.419Z,72.32
2017-01-06T04:44:22.761Z,71.75
2017-01-06T04:45:33.502Z,72.13
2017-01-06T04:46:44.235Z,71.75
2017-01-06T04:47:54.179Z,71.56
2017-01-06T04:49:04.501Z,72.41
2017-01-06T04:50:15.233Z,72.41
2017-01-06T04:51:25.566Z,71.56
2017-01-06T04:52:35.515Z,71.56
2017-01-06T04:53:45.453Z,71.66
2017-01-06T04:54:56.184Z,71.75
2017-01-06T04:56:06.521Z,71.94
2017-01-06T04:57:16.470Z,71.94
2017-01-06T04:58:27.214Z,71.84
2017-01-06T04:59:37.550Z,71.56
2017-01-06T05:00:47.882Z,71.75
2017-01-06T05:01:58.609Z,71.94
2017-01-06T05:03:09.351Z,71.75
2017-01-06T05:04:18.904Z,71.94
2017-01-06T05:05:29.243Z,71.94
2017-01-06T05:06:39.580Z,71.94
2017-01-06T05:07:49.908Z,72.03
2017-01-06T05:09:00.249Z,71.84
2017-01-06T05:10:10.220Z,71.94
2017-01-06T05:11:20.984Z,71.94
2017-01-06T05:12:31.731Z,71.94
2017-01-06T05:13:41.680Z,71.84
2017-01-06T05:14:52.427Z,72.13
2017-01-06T05:16:02.752Z,71.84
2017-01-06T05:17:13.481Z,71.84
2017-01-06T05:18:23.820Z,71.94
2017-01-06T05:19:34.555Z,71.94
2017-01-06T05:20:45.290Z,71.84
2017-01-06T05:21:55.633Z,71.84
2017-01-06T05:23:05.189Z,71.94
2017-01-06T05:24:15.939Z,71.84
2017-01-06T05:25:26.688Z,71.84
2017-01-06T05:26:36.625Z,71.94
2017-01-06T05:27:46.972Z,71.94
2017-01-06T05:28:57.328Z,71.98
2017-01-06T05:30:08.084Z,71.94
2017-01-06T05:31:18.817Z,71.94
2017-01-06T05:32:29.555Z,72.07
2017-01-06T05:33:40.306Z,71.94
2017-01-06T05:34:50.652Z,71.79
2017-01-06T05:36:00.604Z,71.88
2017-01-06T05:37:10.940Z,71.94
2017-01-06T05:38:21.308Z,71.88
2017-01-06T05:39:31.645Z,71.98
2017-01-06T05:40:41.995Z,71.98
2017-01-06T05:41:52.748Z,72.07
2017-01-06T05:43:02.694Z,71.98
2017-01-06T05:44:13.036Z,71.79
2017-01-06T05:45:23.394Z,71.75
2017-01-06T05:46:34.124Z,71.66
2017-01-06T05:47:44.464Z,71.79
2017-01-06T05:48:54.808Z,71.88
2017-01-06T05:50:05.537Z,71.88
2017-01-06T05:51:15.477Z,71.98
2017-01-06T05:52:26.223Z,71.88
2017-01-06T05:53:36.949Z,71.84
2017-01-06T05:54:47.693Z,71.69
2017-01-06T05:55:58.033Z,71.69
2017-01-06T05:57:07.976Z,71.98
2017-01-06T05:58:18.713Z,71.94
2017-01-06T05:59:28.650Z,71.88
2017-01-06T06:00:38.606Z,71.84
2017-01-06T06:01:48.944Z,71.84
2017-01-06T06:02:59.665Z,71.98
2017-01-06T06:04:09.611Z,71.94
2017-01-06T06:05:19.567Z,71.94
2017-01-06T06:06:29.904Z,71.79
2017-01-06T06:07:40.641Z,71.98
2017-01-06T06:08:50.983Z,71.98
2017-01-06T06:10:01.710Z,72.03
2017-01-06T06:11:12.442Z,71.94
2017-01-06T06:12:23.178Z,71.84
2017-01-06T06:13:32.725Z,71.88
2017-01-06T06:14:43.056Z,71.75
2017-01-06T06:15:52.993Z,71.94
2017-01-06T06:17:03.380Z,71.94
2017-01-06T06:18:12.930Z,71.75
2017-01-06T06:19:23.666Z,71.84
2017-01-06T06:20:33.996Z,71.88
2017-01-06T06:21:44.781Z,71.84
2017-01-06T06:22:55.532Z,71.94
2017-01-06T06:24:05.860Z,71.84
2017-01-06T06:25:16.597Z,71.84
2017-01-06T06:26:26.941Z,71.66
2017-01-06T06:27:37.666Z,71.75
2017-01-06T06:28:48.023Z,71.84
2017-01-06T06:29:58.756Z,71.75
2017-01-06T06:31:09.504Z,71.75
2017-01-06T06:32:19.848Z,71.75
2017-01-06T06:33:30.577Z,71.84
2017-01-06T06:34:40.125Z,71.75
2017-01-06T06:35:50.460Z,71.94
2017-01-06T06:37:01.195Z,71.56
2017-01-06T06:38:11.930Z,71.84
2017-01-06T06:39:22.665Z,71.84
2017-01-06T06:40:33.397Z,71.84
2017-01-06T06:41:43.358Z,71.84
2017-01-06T06:42:53.310Z,71.84
2017-01-06T06:44:04.043Z,71.75
2017-01-06T06:45:14.774Z,71.94
2017-01-06T06:46:24.703Z,71.94
2017-01-06T06:47:35.052Z,72.22
2017-01-06T06:48:45.418Z,72.13
2017-01-06T06:49:56.169Z,72.03
2017-01-06T06:51:06.905Z,72.22
2017-01-06T06:52:17.264Z,71.47
2017-01-06T06:53:28.006Z,72.22
2017-01-06T06:54:37.953Z,72.13
2017-01-06T06:55:48.303Z,71.47
2017-01-06T06:56:59.035Z,71.94
2017-01-06T06:58:08.988Z,71.75
2017-01-06T06:59:18.964Z,71.75
2017-01-06T07:00:29.697Z,71.75
2017-01-06T07:01:40.069Z,71.28
2017-01-06T07:02:50.816Z,71.19
2017-01-06T07:04:01.552Z,71.37
2017-01-06T07:05:12.289Z,71.28
2017-01-06T07:06:23.035Z,71.75
2017-01-06T07:07:33.775Z,71.47
2017-01-06T07:08:44.522Z,71.47
2017-01-06T07:09:55.318Z,71.47
2017-01-06T07:11:05.659Z,71.75
2017-01-06T07:12:16.012Z,71.28
2017-01-06T07:13:26.358Z,71.47
2017-01-06T07:14:37.090Z,71
2017-01-06T07:15:47.453Z,71.28
2017-01-06T07:16:58.199Z,71.37
2017-01-06T07:18:08.949Z,71.28
2017-01-06T07:19:19.677Z,71.37
2017-01-06T07:20:30.022Z,71.37
2017-01-06T07:21:40.765Z,71
2017-01-06T07:22:51.104Z,71.19
2017-01-06T07:24:01.458Z,70.72
2017-01-06T07:25:11.796Z,71.28
2017-01-06T07:26:22.542Z,71.28
2017-01-06T07:27:32.889Z,71.37
2017-01-06T07:28:43.236Z,71.28
2017-01-06T07:29:53.967Z,71
2017-01-06T07:31:04.323Z,71.19
2017-01-06T07:32:14.666Z,71.37
2017-01-06T07:33:25.021Z,71.19
2017-01-06T07:34:35.362Z,70.62
2017-01-06T07:35:46.084Z,70.62
2017-01-06T07:36:56.037Z,70.62
2017-01-06T07:38:06.791Z,70.24
2017-01-06T07:39:17.124Z,70.24
2017-01-06T07:40:27.471Z,70.34
2017-01-06T07:41:37.017Z,70.53
2017-01-06T07:42:47.747Z,70.56
2017-01-06T07:43:57.691Z,70.53
2017-01-06T07:45:08.424Z,70.62
2017-01-06T07:46:18.370Z,70.65
2017-01-06T07:47:28.703Z,70.65
2017-01-06T07:48:39.444Z,70.47
2017-01-06T07:49:49.784Z,70.47
2017-01-06T07:51:00.521Z,70.28
2017-01-06T07:52:11.263Z,70.56
2017-01-06T07:53:22.001Z,70.65
2017-01-06T07:54:32.738Z,70.18
2017-01-06T07:55:43.470Z,70.18
2017-01-06T07:56:54.201Z,70.37
2017-01-06T07:58:04.532Z,70.18
2017-01-06T07:59:15.268Z,70.37
2017-01-06T08:00:26.011Z,69.71
2017-01-06T08:01:35.957Z,69.52
2017-01-06T08:02:46.680Z,69.52
2017-01-06T08:03:57.405Z,69.84
2017-01-06T08:05:07.777Z,69.27
2017-01-06T08:06:18.523Z,68.8
2017-01-06T08:07:29.255Z,68.8
2017-01-06T08:08:39.594Z,69.27
2017-01-06T08:09:49.924Z,69.56
2017-01-06T08:10:59.468Z,69.84
2017-01-06T08:12:09.812Z,69.56
2017-01-06T08:13:19.364Z,69.84
2017-01-06T08:14:29.311Z,70.31
2017-01-06T08:15:39.252Z,70.21
2017-01-06T08:16:49.986Z,70.31
2017-01-06T08:17:59.541Z,70.31
2017-01-06T08:19:09.872Z,69.65
2017-01-06T08:20:20.207Z,69.46
2017-01-06T08:21:30.537Z,69.84
2017-01-06T08:22:41.305Z,69.56
2017-01-06T08:23:52.045Z,69.27
2017-01-06T08:25:02.422Z,69.27
2017-01-06T08:26:12.808Z,69.27
2017-01-06T08:27:23.146Z,69.27
2017-01-06T08:28:33.871Z,69.46
2017-01-06T08:29:44.619Z,69.46
2017-01-06T08:30:55.406Z,69.84
2017-01-06T08:32:05.767Z,70.4
2017-01-06T08:33:16.536Z,70.12
2017-01-06T08:34:27.270Z,70.03
2017-01-06T08:35:38.014Z,70.31
2017-01-06T08:36:48.355Z,69.74
2017-01-06T08:37:59.101Z,69.27
2017-01-06T08:39:09.859Z,69.37
2017-01-06T08:40:20.206Z,69.56
2017-01-06T08:41:30.942Z,70.03
2017-01-06T08:42:41.267Z,70.31
2017-01-06T08:43:51.271Z,70.59
2017-01-06T08:45:01.666Z,70.59
2017-01-06T08:46:12.408Z,70.03
2017-01-06T08:47:22.750Z,70.21
2017-01-06T08:48:33.087Z,70.4
2017-01-06T08:49:43.423Z,69.65
2017-01-06T08:50:53.777Z,70.03
2017-01-06T08:52:04.140Z,69.12
2017-01-06T08:53:14.494Z,69.31
2017-01-06T08:54:25.231Z,69.12
2017-01-06T08:55:35.206Z,68.93
2017-01-06T08:56:45.545Z,68.93
2017-01-06T08:57:56.282Z,69.02
2017-01-06T08:59:06.653Z,69.59
2017-01-06T09:00:17.004Z,69.97
2017-01-06T09:01:27.755Z,69.68
2017-01-06T09:02:38.103Z,69.59
2017-01-06T09:03:48.820Z,69.49
2017-01-06T09:04:59.169Z,69.4
2017-01-06T09:06:09.503Z,69.49
2017-01-06T09:07:20.265Z,69.4
2017-01-06T09:08:30.623Z,69.59
2017-01-06T09:09:40.569Z,69.68
2017-01-06T09:10:50.955Z,70.35
2017-01-06T09:12:01.313Z,70.25
2017-01-06T09:13:12.059Z,70.06
2017-01-06T09:14:22.796Z,70.5
2017-01-06T09:15:32.738Z,71.26
2017-01-06T09:16:42.682Z,71.64
2017-01-06T09:17:52.636Z,71.64
2017-01-06T09:19:03.370Z,71.16
2017-01-06T09:20:13.730Z,71.64
2017-01-06T09:21:23.676Z,71.54
2017-01-06T09:22:33.628Z,71.26
2017-01-06T09:23:44.355Z,70.97
2017-01-06T09:24:53.906Z,70.78
2017-01-06T09:26:04.250Z,69.46
2017-01-06T09:27:14.601Z,68.65
2017-01-06T09:28:25.341Z,67.79
2017-01-06T09:29:35.684Z,67.74
2017-01-06T09:30:46.112Z,67.45
2017-01-06T09:31:56.078Z,67.36
2017-01-06T09:33:06.801Z,67.83
2017-01-06T09:34:16.766Z,67.93
2017-01-06T09:35:27.494Z,68.49
2017-01-06T09:36:38.230Z,68.68
2017-01-06T09:37:48.585Z,68.77
2017-01-06T09:38:58.944Z,69.15
2017-01-06T09:40:09.291Z,69.44
2017-01-06T09:41:19.263Z,68.87
2017-01-06T09:42:29.235Z,68.96
2017-01-06T09:43:39.974Z,68.87
2017-01-06T09:44:50.706Z,68.68
2017-01-06T09:46:01.050Z,68.87
2017-01-06T09:47:11.799Z,68.77
2017-01-06T09:48:22.548Z,69.34
2017-01-06T09:49:33.289Z,69.25
2017-01-06T09:50:44.010Z,69.15
2017-01-06T09:51:54.362Z,68.68
2017-01-06T09:53:05.109Z,68.9
2017-01-06T09:54:15.074Z,68.24
2017-01-06T09:55:25.823Z,68.9
2017-01-06T09:56:36.179Z,69
2017-01-06T09:57:46.132Z,69
2017-01-06T09:58:56.877Z,69.38
2017-01-06T10:00:06.443Z,69.38
2017-01-06T10:01:16.798Z,69
2017-01-06T10:02:27.549Z,69
2017-01-06T10:03:37.499Z,68.9
2017-01-06T10:04:47.848Z,69.19
2017-01-06T10:05:58.584Z,69.19
2017-01-06T10:07:08.979Z,68.81
2017-01-06T10:08:19.315Z,68.81
2017-01-06T10:09:30.049Z,69.09
2017-01-06T10:10:40.799Z,70.04
2017-01-06T10:11:51.135Z,69.63
2017-01-06T10:13:01.888Z,69.09
2017-01-06T10:14:12.624Z,69
2017-01-06T10:15:22.991Z,68.71
2017-01-06T10:16:33.330Z,68.62
2017-01-06T10:17:43.659Z,69.09
2017-01-06T10:18:53.619Z,69.03
2017-01-06T10:20:04.347Z,68.75
2017-01-06T10:21:15.099Z,69.22
2017-01-06T10:22:25.836Z,68.65
2017-01-06T10:23:36.182Z,69.41
2017-01-06T10:24:46.522Z,68.84
2017-01-06T10:25:56.886Z,69.32
2017-01-06T10:27:06.847Z,70.42
2017-01-06T10:28:17.604Z,70.7
2017-01-06T10:29:27.952Z,70.23
2017-01-06T10:30:38.698Z,69.76
2017-01-06T10:31:49.050Z,69.76
2017-01-06T10:32:59.797Z,68.81
2017-01-06T10:34:10.135Z,68.9
2017-01-06T10:35:20.495Z,68.18
2017-01-06T10:36:30.832Z,68.56
2017-01-06T10:37:41.574Z,67.8
2017-01-06T10:38:52.326Z,68.02
2017-01-06T10:40:02.672Z,68.18
2017-01-06T10:41:13.429Z,68.37
2017-01-06T10:42:23.791Z,68.46
2017-01-06T10:43:33.753Z,68.94
2017-01-06T10:44:44.530Z,69.95
2017-01-06T10:45:54.878Z,69.66
2017-01-06T10:47:05.230Z,70.42
2017-01-06T10:48:15.961Z,70.7
2017-01-06T10:49:26.736Z,71.27
2017-01-06T10:50:37.496Z,71.04
2017-01-06T10:51:48.267Z,71.04
2017-01-06T10:52:59.009Z,71.71
2017-01-06T10:54:09.768Z,71.04
2017-01-06T10:55:19.726Z,71.33
2017-01-06T10:56:30.057Z,70.95
2017-01-06T10:57:40.014Z,71.33
2017-01-06T10:58:50.749Z,70.29
2017-01-06T11:00:01.093Z,70.29
2017-01-06T11:01:11.864Z,70.1
2017-01-06T11:02:22.226Z,70.39
2017-01-06T11:03:32.992Z,70.2
2017-01-06T11:04:43.339Z,70.1
2017-01-06T11:05:54.082Z,70.57
2017-01-06T11:07:04.423Z,70.48
2017-01-06T11:08:15.175Z,70.95
2017-01-06T11:09:25.926Z,70.57
2017-01-06T11:10:36.263Z,70.57
2017-01-06T11:11:47.011Z,70.86
2017-01-06T11:12:57.397Z,71.11
2017-01-06T11:14:07.354Z,71.2
2017-01-06T11:15:18.095Z,71.3
2017-01-06T11:16:28.443Z,71.01
2017-01-06T11:17:39.183Z,70.82
2017-01-06T11:18:49.931Z,70.63
2017-01-06T11:20:00.335Z,70.63
2017-01-06T11:21:10.677Z,70.35
2017-01-06T11:22:21.416Z,69.72
2017-01-06T11:23:32.156Z,70.01
2017-01-06T11:24:42.905Z,69.91
2017-01-06T11:25:53.245Z,69.15
2017-01-06T11:27:04.003Z,69
2017-01-06T11:28:14.750Z,68.43
2017-01-06T11:29:25.493Z,68.62
2017-01-06T11:30:36.224Z,68.33
2017-01-06T11:31:46.190Z,69.38
2017-01-06T11:32:56.551Z,69.53
2017-01-06T11:34:06.518Z,70.1
2017-01-06T11:35:17.272Z,70.39
2017-01-06T11:36:28.015Z,69.91
2017-01-06T11:37:38.747Z,69.38
2017-01-06T11:38:49.491Z,69.63
2017-01-06T11:39:59.827Z,69.82
2017-01-06T11:41:10.584Z,69.25
2017-01-06T11:42:20.931Z,68.9
2017-01-06T11:43:31.661Z,69.19
2017-01-06T11:44:42.414Z,68.62
2017-01-06T11:45:53.146Z,69
2017-01-06T11:47:03.887Z,69.09
2017-01-06T11:48:14.644Z,69.95
2017-01-06T11:49:24.989Z,70.23
2017-01-06T11:50:35.332Z,70.76
2017-01-06T11:51:45.686Z,70.86
2017-01-06T11:52:56.035Z,70.29
2017-01-06T11:54:06.426Z,71.42
2017-01-06T11:55:16.808Z,71.42
2017-01-06T11:56:27.549Z,71.14
2017-01-06T11:57:38.272Z,70.95
2017-01-06T11:58:48.994Z,70.86
2017-01-06T11:59:59.724Z,70.67
2017-01-06T12:01:09.681Z,70.39
2017-01-06T12:02:20.055Z,70.76
2017-01-06T12:03:30.421Z,70.2
2017-01-06T12:04:41.191Z,70.1
2017-01-06T12:05:51.923Z,70.1
2017-01-06T12:07:02.258Z,70.48
2017-01-06T12:08:12.996Z,70.82
2017-01-06T12:09:23.776Z,70.35
2017-01-06T12:10:34.508Z,70.63
2017-01-06T12:11:44.837Z,70.92
2017-01-06T12:12:55.563Z,70.54
2017-01-06T12:14:05.503Z,70.92
2017-01-06T12:15:16.240Z,71.2
2017-01-06T12:16:26.976Z,71.01
2017-01-06T12:17:37.711Z,71.2
2017-01-06T12:18:48.075Z,71.11
2017-01-06T12:19:58.826Z,70.16
2017-01-06T12:21:09.558Z,70.25
2017-01-06T12:22:19.905Z,70.73
2017-01-06T12:23:30.636Z,70.54
2017-01-06T12:24:41.374Z,70.54
2017-01-06T12:25:51.735Z,69.59
2017-01-06T12:27:02.083Z,69.59
2017-01-06T12:28:12.814Z,68.84
2017-01-06T12:29:22.777Z,67.01
2017-01-06T12:30:33.116Z,65.56
2017-01-06T12:31:43.465Z,64.36
2017-01-06T12:32:53.810Z,64.46
2017-01-06T12:34:04.548Z,64.27
2017-01-06T12:35:15.288Z,65.22
2017-01-06T12:36:25.624Z,66.8
2017-01-06T12:37:36.350Z,68.27
2017-01-06T12:38:47.161Z,69.38
2017-01-06T12:39:57.895Z,69.76
2017-01-06T12:41:08.637Z,70.32
2017-01-06T12:42:19.403Z,70.61
2017-01-06T12:43:29.756Z,70.51
2017-01-06T12:44:40.497Z,70.67
2017-01-06T12:45:50.454Z,70.76
2017-01-06T12:47:01.201Z,70.76
2017-01-06T12:48:11.558Z,70.86
2017-01-06T12:49:22.310Z,70.57
2017-01-06T12:50:32.674Z,70.76
2017-01-06T12:51:43.018Z,70.57
2017-01-06T12:52:53.766Z,70.67
2017-01-06T12:54:04.141Z,70.48
2017-01-06T12:55:14.903Z,70.48
2017-01-06T12:56:24.895Z,70.67
2017-01-06T12:57:35.234Z,70.76
2017-01-06T12:58:45.600Z,70.29
2017-01-06T12:59:56.332Z,69.15
2017-01-06T13:01:06.682Z,68.81
2017-01-06T13:02:17.027Z,67.86
2017-01-06T13:03:26.964Z,68.33
2017-01-06T13:04:36.912Z,68.81
2017-01-06T13:05:47.255Z,69
2017-01-06T13:06:57.597Z,69.72
2017-01-06T13:08:07.943Z,70.76
2017-01-06T13:09:18.678Z,70.2
2017-01-06T13:10:29.425Z,70.95
2017-01-06T13:11:40.177Z,71.14
2017-01-06T13:12:50.539Z,71.11
2017-01-06T13:14:01.276Z,71.01
2017-01-06T13:15:11.623Z,71.11
2017-01-06T13:16:21.958Z,71.39
2017-01-06T13:17:32.300Z,71.39
2017-01-06T13:18:43.037Z,71.11
2017-01-06T13:19:52.999Z,70.82
2017-01-06T13:21:03.745Z,71.11
2017-01-06T13:22:14.108Z,71.11
2017-01-06T13:23:24.856Z,71.3
2017-01-06T13:24:35.612Z,71.11
2017-01-06T13:25:45.958Z,71.3
2017-01-06T13:26:56.314Z,71.07
2017-01-06T13:28:06.292Z,71.11
2017-01-06T13:29:16.647Z,70.35
2017-01-06T13:30:27.385Z,70.63
2017-01-06T13:31:37.363Z,70.44
2017-01-06T13:32:47.707Z,70.73
2017-01-06T13:33:58.055Z,70.73
2017-01-06T13:35:07.993Z,70.82
2017-01-06T13:36:18.332Z,70.82
2017-01-06T13:37:29.068Z,70.16
2017-01-06T13:38:39.814Z,70.78
2017-01-06T13:39:50.172Z,71.07
2017-01-06T13:41:00.522Z,71.16
2017-01-06T13:42:10.869Z,70.78
2017-01-06T13:43:21.620Z,70.78
2017-01-06T13:44:31.957Z,71.07
2017-01-06T13:45:42.304Z,70.88
2017-01-06T13:46:52.642Z,70.88
2017-01-06T13:48:03.382Z,70.97
2017-01-06T13:49:13.788Z,70.69
2017-01-06T13:50:24.549Z,70.5
2017-01-06T13:51:35.282Z,70.31
2017-01-06T13:52:46.028Z,70.5
2017-01-06T13:53:56.371Z,70.4
2017-01-06T13:55:07.186Z,70.5
2017-01-06T13:56:17.938Z,70.5
2017-01-06T13:57:28.705Z,70.5
2017-01-06T13:58:38.672Z,70.59
2017-01-06T13:59:49.009Z,70.5
2017-01-06T14:00:59.341Z,70.5
2017-01-06T14:02:10.083Z,70.21
2017-01-06T14:03:20.823Z,70.78
2017-01-06T14:04:30.771Z,71.35
2017-01-06T14:05:41.102Z,71.35
2017-01-06T14:06:51.053Z,71.07
2017-01-06T14:08:00.995Z,71.16
2017-01-06T14:09:11.737Z,71.07
2017-01-06T14:10:22.074Z,71.07
2017-01-06T14:11:32.460Z,71.07
2017-01-06T14:12:42.818Z,71.07
2017-01-06T14:13:53.163Z,71.16
2017-01-06T14:15:03.515Z,71.16
2017-01-06T14:16:13.876Z,71.26
2017-01-06T14:17:24.223Z,71.07
2017-01-06T14:18:34.187Z,70.78
2017-01-06T14:19:44.953Z,71.03
2017-01-06T14:20:55.308Z,71.31
2017-01-06T14:22:06.040Z,71.03
2017-01-06T14:23:16.798Z,71.31
2017-01-06T14:24:26.753Z,71.03
2017-01-06T14:25:37.486Z,71.03
2017-01-06T14:26:47.429Z,71.31
2017-01-06T14:27:57.767Z,71.22
2017-01-06T14:29:08.507Z,71.12
2017-01-06T14:30:18.479Z,71.31
2017-01-06T14:31:28.814Z,71.41
2017-01-06T14:32:39.551Z,70.94
2017-01-06T14:33:49.493Z,70.56
2017-01-06T14:35:00.244Z,70.84
2017-01-06T14:36:10.579Z,70.28
2017-01-06T14:37:21.313Z,70.84
2017-01-06T14:38:31.646Z,71.03
2017-01-06T14:39:41.587Z,70.84
2017-01-06T14:40:51.934Z,71.22
2017-01-06T14:42:02.675Z,70.75
2017-01-06T14:43:12.628Z,71.12
2017-01-06T14:44:22.583Z,70.75
2017-01-06T14:45:32.941Z,71.03
2017-01-06T14:46:43.692Z,71.03
2017-01-06T14:47:54.066Z,71.31
2017-01-06T14:49:04.461Z,71.31
2017-01-06T14:50:15.187Z,71.03
2017-01-06T14:51:25.919Z,71.41
2017-01-06T14:52:35.882Z,71.41
2017-01-06T14:53:46.615Z,71.6
2017-01-06T14:54:57.357Z,71.31
2017-01-06T14:56:07.733Z,71.41
2017-01-06T14:57:18.461Z,71.37
2017-01-06T14:58:28.402Z,71.5
2017-01-06T14:59:39.145Z,71.03
2017-01-06T15:00:48.313Z,71.31
2017-01-06T15:01:58.638Z,71.5
2017-01-06T15:03:08.998Z,71.41
2017-01-06T15:04:19.353Z,71.41
2017-01-06T15:05:30.083Z,71.5
2017-01-06T15:06:40.846Z,71.12
2017-01-06T15:07:51.203Z,70.75
2017-01-06T15:09:01.937Z,70.75
2017-01-06T15:10:12.297Z,71.03
2017-01-06T15:11:23.054Z,71.03
2017-01-06T15:12:33.795Z,71.03
2017-01-06T15:13:44.540Z,71.03
2017-01-06T15:14:55.285Z,71.5
2017-01-06T15:16:04.835Z,71.31
2017-01-06T15:17:15.578Z,71.5
2017-01-06T15:18:25.940Z,71.41
2017-01-06T15:19:36.277Z,71.03
2017-01-06T15:20:46.631Z,71.03
2017-01-06T15:21:56.984Z,71.41
2017-01-06T15:23:07.325Z,71.03
2017-01-06T15:24:17.283Z,71.31
2017-01-06T15:25:27.633Z,71.6
2017-01-06T15:26:38.373Z,71.5
2017-01-06T15:27:48.714Z,71.31
2017-01-06T15:28:59.463Z,71.03
2017-01-06T15:30:09.814Z,71.31
2017-01-06T15:31:20.551Z,71.31
2017-01-06T15:32:30.897Z,71.41
2017-01-06T15:33:41.629Z,71
2017-01-06T15:34:51.967Z,71.56
2017-01-06T15:36:02.732Z,71.09
2017-01-06T15:37:13.075Z,71.47
2017-01-06T15:38:23.836Z,71.28
2017-01-06T15:39:34.208Z,71.28
2017-01-06T15:40:44.580Z,71.37